sensor_id;sensor_type;location;lat;lon;timestamp;temperature;humidity
47600;DHT22;33323;52.124;6.018;2023-04-30T00:00:02;7.10;99.90
47600;DHT22;33323;52.124;6.018;2023-04-30T00:02:36;7.00;99.90
47600;DHT22;33323;52.124;6.018;2023-04-30T00:05:04;7.00;99.90
47600;DHT22;33323;52.124;6.018;2023-04-30T00:07:31;7.00;99.90
47600;DHT22;33323;52.124;6.018;2023-04-30T00:09:58;7.00;99.90
47600;DHT22;33323;52.124;6.018;2023-04-30T00:12:25;7.00;99.90
47600;DHT22;33323;52.124;6.018;2023-04-30T00:14:53;7.10;99.90
47600;DHT22;33323;52.124;6.018;2023-04-30T00:17:21;7.00;99.90
47600;DHT22;33323;52.124;6.018;2023-04-30T00:19:49;6.90;99.90
47600;DHT22;33323;52.124;6.018;2023-04-30T00:22:16;6.90;99.90
47600;DHT22;33323;52.124;6.018;2023-04-30T00:24:43;6.80;99.90
47600;DHT22;33323;52.124;6.018;2023-04-30T00:27:11;6.80;99.90
47600;DHT22;33323;52.124;6.018;2023-04-30T00:29:38;6.70;99.90
47600;DHT22;33323;52.124;6.018;2023-04-30T00:32:05;6.70;99.90
47600;DHT22;33323;52.124;6.018;2023-04-30T00:34:32;6.60;99.90
47600;DHT22;33323;52.124;6.018;2023-04-30T00:36:59;6.50;99.90
47600;DHT22;33323;52.124;6.018;2023-04-30T00:39:26;6.40;99.90
47600;DHT22;33323;52.124;6.018;2023-04-30T00:41:53;6.40;99.90
47600;DHT22;33323;52.124;6.018;2023-04-30T00:44:21;6.40;99.90
47600;DHT22;33323;52.124;6.018;2023-04-30T00:46:48;6.40;99.90
47600;DHT22;33323;52.124;6.018;2023-04-30T00:49:15;6.50;99.90
47600;DHT22;33323;52.124;6.018;2023-04-30T00:51:44;6.50;99.90
47600;DHT22;33323;52.124;6.018;2023-04-30T00:54:11;6.40;99.90
47600;DHT22;33323;52.124;6.018;2023-04-30T00:56:39;6.30;99.90
47600;DHT22;33323;52.124;6.018;2023-04-30T00:59:06;6.20;99.90
47600;DHT22;33323;52.124;6.018;2023-04-30T01:01:33;6.30;99.90
47600;DHT22;33323;52.124;6.018;2023-04-30T01:04:00;6.20;99.90
47600;DHT22;33323;52.124;6.018;2023-04-30T01:06:28;6.10;99.90
47600;DHT22;33323;52.124;6.018;2023-04-30T01:08:55;6.10;99.90
47600;DHT22;33323;52.124;6.018;2023-04-30T01:17:35;6.10;99.90
47600;DHT22;33323;52.124;6.018;2023-04-30T01:20:07;5.90;99.90
47600;DHT22;33323;52.124;6.018;2023-04-30T01:22:45;5.80;99.90
47600;DHT22;33323;52.124;6.018;2023-04-30T01:28:13;5.80;99.90
47600;DHT22;33323;52.124;6.018;2023-04-30T01:30:43;5.80;99.90
47600;DHT22;33323;52.124;6.018;2023-04-30T01:33:13;5.50;99.90
47600;DHT22;33323;52.124;6.018;2023-04-30T01:47:29;5.20;99.90
47600;DHT22;33323;52.124;6.018;2023-04-30T01:50:09;5.40;99.90
47600;DHT22;33323;52.124;6.018;2023-04-30T01:52:52;5.30;99.90
47600;DHT22;33323;52.124;6.018;2023-04-30T01:55:23;5.30;99.90
47600;DHT22;33323;52.124;6.018;2023-04-30T01:57:56;5.20;99.90
47600;DHT22;33323;52.124;6.018;2023-04-30T02:00:27;5.20;99.90
47600;DHT22;33323;52.124;6.018;2023-04-30T02:02:57;5.20;99.90
47600;DHT22;33323;52.124;6.018;2023-04-30T02:05:25;5.20;99.90
47600;DHT22;33323;52.124;6.018;2023-04-30T02:07:52;5.30;99.90
47600;DHT22;33323;52.124;6.018;2023-04-30T02:10:23;5.20;99.90
47600;DHT22;33323;52.124;6.018;2023-04-30T02:12:52;5.20;99.90
47600;DHT22;33323;52.124;6.018;2023-04-30T02:15:19;5.20;99.90
47600;DHT22;33323;52.124;6.018;2023-04-30T02:17:46;5.10;99.90
47600;DHT22;33323;52.124;6.018;2023-04-30T02:20:13;5.00;99.90
47600;DHT22;33323;52.124;6.018;2023-04-30T02:22:41;5.00;99.90
47600;DHT22;33323;52.124;6.018;2023-04-30T02:25:09;4.90;99.90
47600;DHT22;33323;52.124;6.018;2023-04-30T02:27:38;5.00;99.90
47600;DHT22;33323;52.124;6.018;2023-04-30T02:30:06;4.90;99.90
47600;DHT22;33323;52.124;6.018;2023-04-30T02:32:33;5.00;99.90
47600;DHT22;33323;52.124;6.018;2023-04-30T02:35:01;5.00;99.90
47600;DHT22;33323;52.124;6.018;2023-04-30T02:37:28;5.00;99.90
47600;DHT22;33323;52.124;6.018;2023-04-30T02:39:55;4.90;99.90
47600;DHT22;33323;52.124;6.018;2023-04-30T02:42:24;4.90;99.90
47600;DHT22;33323;52.124;6.018;2023-04-30T02:44:51;4.80;99.90
47600;DHT22;33323;52.124;6.018;2023-04-30T02:47:18;4.70;99.90
47600;DHT22;33323;52.124;6.018;2023-04-30T02:49:45;4.80;99.90
47600;DHT22;33323;52.124;6.018;2023-04-30T02:52:12;4.70;99.90
47600;DHT22;33323;52.124;6.018;2023-04-30T02:54:39;4.70;99.90
47600;DHT22;33323;52.124;6.018;2023-04-30T02:57:06;4.60;99.90
47600;DHT22;33323;52.124;6.018;2023-04-30T02:59:33;4.60;99.90
47600;DHT22;33323;52.124;6.018;2023-04-30T03:02:00;4.50;99.90
47600;DHT22;33323;52.124;6.018;2023-04-30T03:04:27;4.50;99.90
47600;DHT22;33323;52.124;6.018;2023-04-30T03:06:54;4.40;99.90
47600;DHT22;33323;52.124;6.018;2023-04-30T03:09:21;4.40;99.90
47600;DHT22;33323;52.124;6.018;2023-04-30T03:11:48;4.40;99.90
47600;DHT22;33323;52.124;6.018;2023-04-30T03:14:15;4.40;99.90
47600;DHT22;33323;52.124;6.018;2023-04-30T03:16:42;4.40;99.90
47600;DHT22;33323;52.124;6.018;2023-04-30T03:19:10;4.40;99.90
47600;DHT22;33323;52.124;6.018;2023-04-30T03:21:38;4.40;99.90
47600;DHT22;33323;52.124;6.018;2023-04-30T03:24:05;4.40;99.90
47600;DHT22;33323;52.124;6.018;2023-04-30T03:26:32;4.40;99.90
47600;DHT22;33323;52.124;6.018;2023-04-30T03:28:59;4.30;99.90
47600;DHT22;33323;52.124;6.018;2023-04-30T03:31:27;4.30;99.90
47600;DHT22;33323;52.124;6.018;2023-04-30T03:33:55;4.20;99.90
47600;DHT22;33323;52.124;6.018;2023-04-30T03:36:22;4.20;99.90
47600;DHT22;33323;52.124;6.018;2023-04-30T03:38:49;4.20;99.90
47600;DHT22;33323;52.124;6.018;2023-04-30T03:41:16;4.20;99.90
47600;DHT22;33323;52.124;6.018;2023-04-30T03:43:43;4.30;99.90
47600;DHT22;33323;52.124;6.018;2023-04-30T03:46:10;4.30;99.90
47600;DHT22;33323;52.124;6.018;2023-04-30T03:48:37;4.20;99.90
47600;DHT22;33323;52.124;6.018;2023-04-30T03:51:04;4.20;99.90
47600;DHT22;33323;52.124;6.018;2023-04-30T03:53:32;4.20;99.90
47600;DHT22;33323;52.124;6.018;2023-04-30T03:55:59;4.20;99.90
47600;DHT22;33323;52.124;6.018;2023-04-30T03:58:26;4.20;99.90
47600;DHT22;33323;52.124;6.018;2023-04-30T04:00:53;4.20;99.90
47600;DHT22;33323;52.124;6.018;2023-04-30T04:03:21;4.20;99.90
47600;DHT22;33323;52.124;6.018;2023-04-30T04:05:49;4.20;99.90
47600;DHT22;33323;52.124;6.018;2023-04-30T04:08:16;4.10;99.90
47600;DHT22;33323;52.124;6.018;2023-04-30T04:10:43;4.00;99.90
47600;DHT22;33323;52.124;6.018;2023-04-30T04:13:10;3.90;99.90
47600;DHT22;33323;52.124;6.018;2023-04-30T04:15:37;3.90;99.90
47600;DHT22;33323;52.124;6.018;2023-04-30T04:18:04;3.90;99.90
47600;DHT22;33323;52.124;6.018;2023-04-30T04:20:34;3.90;99.90
47600;DHT22;33323;52.124;6.018;2023-04-30T04:23:01;3.80;99.90
47600;DHT22;33323;52.124;6.018;2023-04-30T04:25:28;3.70;99.90
47600;DHT22;33323;52.124;6.018;2023-04-30T04:27:55;3.80;99.90
47600;DHT22;33323;52.124;6.018;2023-04-30T04:30:23;4.00;99.90
47600;DHT22;33323;52.124;6.018;2023-04-30T04:32:54;4.30;99.90
47600;DHT22;33323;52.124;6.018;2023-04-30T04:35:21;4.50;99.90
47600;DHT22;33323;52.124;6.018;2023-04-30T04:37:48;4.70;99.90
47600;DHT22;33323;52.124;6.018;2023-04-30T04:40:16;5.00;99.90
47600;DHT22;33323;52.124;6.018;2023-04-30T04:42:44;5.20;99.90
47600;DHT22;33323;52.124;6.018;2023-04-30T04:45:11;5.50;99.90
47600;DHT22;33323;52.124;6.018;2023-04-30T04:47:38;5.80;99.90
47600;DHT22;33323;52.124;6.018;2023-04-30T04:50:06;6.10;99.90
47600;DHT22;33323;52.124;6.018;2023-04-30T04:52:33;6.10;99.90
47600;DHT22;33323;52.124;6.018;2023-04-30T04:55:00;6.30;99.90
47600;DHT22;33323;52.124;6.018;2023-04-30T04:57:27;6.50;99.90
47600;DHT22;33323;52.124;6.018;2023-04-30T04:59:54;6.80;99.90
47600;DHT22;33323;52.124;6.018;2023-04-30T05:02:22;7.10;99.90
47600;DHT22;33323;52.124;6.018;2023-04-30T05:04:50;7.50;99.90
47600;DHT22;33323;52.124;6.018;2023-04-30T05:07:18;7.80;99.90
47600;DHT22;33323;52.124;6.018;2023-04-30T05:09:45;8.20;99.90
47600;DHT22;33323;52.124;6.018;2023-04-30T05:12:13;8.60;99.90
47600;DHT22;33323;52.124;6.018;2023-04-30T05:14:41;8.80;99.90
47600;DHT22;33323;52.124;6.018;2023-04-30T05:17:08;9.00;99.90
47600;DHT22;33323;52.124;6.018;2023-04-30T05:19:35;9.20;99.90
47600;DHT22;33323;52.124;6.018;2023-04-30T05:22:02;9.50;99.90
47600;DHT22;33323;52.124;6.018;2023-04-30T05:24:30;9.80;99.90
47600;DHT22;33323;52.124;6.018;2023-04-30T05:26:57;9.90;99.90
47600;DHT22;33323;52.124;6.018;2023-04-30T05:29:24;9.90;99.90
47600;DHT22;33323;52.124;6.018;2023-04-30T05:31:51;10.30;99.90
47600;DHT22;33323;52.124;6.018;2023-04-30T05:34:19;10.20;99.90
47600;DHT22;33323;52.124;6.018;2023-04-30T05:36:46;10.40;99.90
47600;DHT22;33323;52.124;6.018;2023-04-30T05:39:13;10.60;99.90
47600;DHT22;33323;52.124;6.018;2023-04-30T05:41:40;11.00;99.90
47600;DHT22;33323;52.124;6.018;2023-04-30T05:44:07;11.40;99.90
47600;DHT22;33323;52.124;6.018;2023-04-30T05:46:35;11.70;99.90
47600;DHT22;33323;52.124;6.018;2023-04-30T05:49:02;11.80;99.90
47600;DHT22;33323;52.124;6.018;2023-04-30T05:51:29;12.00;99.90
47600;DHT22;33323;52.124;6.018;2023-04-30T05:53:56;12.20;99.90
47600;DHT22;33323;52.124;6.018;2023-04-30T05:56:23;12.40;99.90
47600;DHT22;33323;52.124;6.018;2023-04-30T05:58:50;12.90;99.90
47600;DHT22;33323;52.124;6.018;2023-04-30T06:01:19;13.20;99.90
47600;DHT22;33323;52.124;6.018;2023-04-30T06:03:46;13.10;99.90
47600;DHT22;33323;52.124;6.018;2023-04-30T06:06:13;12.70;99.90
47600;DHT22;33323;52.124;6.018;2023-04-30T06:08:41;12.90;99.90
47600;DHT22;33323;52.124;6.018;2023-04-30T06:11:11;13.10;99.90
47600;DHT22;33323;52.124;6.018;2023-04-30T06:13:41;13.50;99.90
47600;DHT22;33323;52.124;6.018;2023-04-30T06:16:08;14.00;99.90
47600;DHT22;33323;52.124;6.018;2023-04-30T06:18:35;13.90;99.90
47600;DHT22;33323;52.124;6.018;2023-04-30T06:21:02;13.50;99.90
47600;DHT22;33323;52.124;6.018;2023-04-30T06:23:29;13.70;99.90
47600;DHT22;33323;52.124;6.018;2023-04-30T06:25:57;13.60;99.90
47600;DHT22;33323;52.124;6.018;2023-04-30T06:28:24;13.30;99.90
47600;DHT22;33323;52.124;6.018;2023-04-30T06:30:52;13.10;99.90
47600;DHT22;33323;52.124;6.018;2023-04-30T06:33:20;12.80;99.90
47600;DHT22;33323;52.124;6.018;2023-04-30T06:35:48;12.90;99.90
47600;DHT22;33323;52.124;6.018;2023-04-30T06:38:18;13.10;99.90
47600;DHT22;33323;52.124;6.018;2023-04-30T06:40:45;13.00;99.90
47600;DHT22;33323;52.124;6.018;2023-04-30T06:43:12;12.70;99.90
47600;DHT22;33323;52.124;6.018;2023-04-30T06:45:39;12.70;99.90
47600;DHT22;33323;52.124;6.018;2023-04-30T06:48:06;12.70;99.90
47600;DHT22;33323;52.124;6.018;2023-04-30T06:50:33;12.70;99.90
47600;DHT22;33323;52.124;6.018;2023-04-30T06:53:01;13.10;99.90
47600;DHT22;33323;52.124;6.018;2023-04-30T06:55:28;13.30;99.90
47600;DHT22;33323;52.124;6.018;2023-04-30T06:57:55;13.20;99.90
47600;DHT22;33323;52.124;6.018;2023-04-30T07:00:23;12.90;99.90
47600;DHT22;33323;52.124;6.018;2023-04-30T07:02:51;12.60;99.90
47600;DHT22;33323;52.124;6.018;2023-04-30T07:05:18;12.80;99.90
47600;DHT22;33323;52.124;6.018;2023-04-30T07:07:45;12.90;99.90
47600;DHT22;33323;52.124;6.018;2023-04-30T07:10:12;12.60;99.90
47600;DHT22;33323;52.124;6.018;2023-04-30T07:12:40;12.50;99.90
47600;DHT22;33323;52.124;6.018;2023-04-30T07:15:07;12.50;99.90
47600;DHT22;33323;52.124;6.018;2023-04-30T07:17:35;12.40;99.90
47600;DHT22;33323;52.124;6.018;2023-04-30T07:20:03;12.40;99.90
47600;DHT22;33323;52.124;6.018;2023-04-30T07:22:31;12.20;99.90
47600;DHT22;33323;52.124;6.018;2023-04-30T07:24:58;12.10;99.90
47600;DHT22;33323;52.124;6.018;2023-04-30T07:27:26;12.00;99.90
47600;DHT22;33323;52.124;6.018;2023-04-30T07:29:54;12.10;99.90
47600;DHT22;33323;52.124;6.018;2023-04-30T07:32:22;12.10;99.90
47600;DHT22;33323;52.124;6.018;2023-04-30T07:34:53;12.30;99.90
47600;DHT22;33323;52.124;6.018;2023-04-30T07:37:20;12.50;99.90
47600;DHT22;33323;52.124;6.018;2023-04-30T07:39:47;12.60;99.90
47600;DHT22;33323;52.124;6.018;2023-04-30T07:42:14;12.30;99.90
47600;DHT22;33323;52.124;6.018;2023-04-30T07:44:42;12.30;99.90
47600;DHT22;33323;52.124;6.018;2023-04-30T07:47:09;12.70;99.90
47600;DHT22;33323;52.124;6.018;2023-04-30T07:49:36;12.80;99.90
47600;DHT22;33323;52.124;6.018;2023-04-30T07:52:03;13.20;99.90
47600;DHT22;33323;52.124;6.018;2023-04-30T07:54:31;13.10;99.90
47600;DHT22;33323;52.124;6.018;2023-04-30T07:57:02;13.30;99.90
47600;DHT22;33323;52.124;6.018;2023-04-30T07:59:32;13.40;99.90
47600;DHT22;33323;52.124;6.018;2023-04-30T08:01:59;13.40;99.90
47600;DHT22;33323;52.124;6.018;2023-04-30T08:04:27;13.50;99.90
47600;DHT22;33323;52.124;6.018;2023-04-30T08:06:54;13.80;99.90
47600;DHT22;33323;52.124;6.018;2023-04-30T08:09:21;13.30;99.90
47600;DHT22;33323;52.124;6.018;2023-04-30T08:11:48;13.00;99.90
47600;DHT22;33323;52.124;6.018;2023-04-30T08:14:16;13.20;99.90
47600;DHT22;33323;52.124;6.018;2023-04-30T08:16:43;13.50;99.90
47600;DHT22;33323;52.124;6.018;2023-04-30T08:19:10;13.30;99.90
47600;DHT22;33323;52.124;6.018;2023-04-30T08:21:38;13.00;99.90
47600;DHT22;33323;52.124;6.018;2023-04-30T08:24:05;13.20;99.90
47600;DHT22;33323;52.124;6.018;2023-04-30T08:26:32;13.40;99.90
47600;DHT22;33323;52.124;6.018;2023-04-30T08:28:59;13.80;99.90
47600;DHT22;33323;52.124;6.018;2023-04-30T08:31:26;14.30;99.90
47600;DHT22;33323;52.124;6.018;2023-04-30T08:33:54;13.80;99.90
47600;DHT22;33323;52.124;6.018;2023-04-30T08:36:21;14.00;99.90
47600;DHT22;33323;52.124;6.018;2023-04-30T08:38:48;14.30;99.90
47600;DHT22;33323;52.124;6.018;2023-04-30T08:41:15;14.20;99.90
47600;DHT22;33323;52.124;6.018;2023-04-30T08:43:42;15.00;99.90
47600;DHT22;33323;52.124;6.018;2023-04-30T08:46:11;14.90;99.90
47600;DHT22;33323;52.124;6.018;2023-04-30T08:48:43;14.70;99.90
47600;DHT22;33323;52.124;6.018;2023-04-30T08:51:10;14.60;99.90
47600;DHT22;33323;52.124;6.018;2023-04-30T08:53:38;14.60;99.90
47600;DHT22;33323;52.124;6.018;2023-04-30T08:56:09;14.60;99.90
47600;DHT22;33323;52.124;6.018;2023-04-30T08:58:37;14.90;99.90
47600;DHT22;33323;52.124;6.018;2023-04-30T09:01:06;15.80;99.90
47600;DHT22;33323;52.124;6.018;2023-04-30T09:03:34;16.40;99.90
47600;DHT22;33323;52.124;6.018;2023-04-30T09:06:02;16.60;99.90
47600;DHT22;33323;52.124;6.018;2023-04-30T09:08:46;16.40;99.90
47600;DHT22;33323;52.124;6.018;2023-04-30T09:13:50;15.70;99.90
47600;DHT22;33323;52.124;6.018;2023-04-30T09:16:20;15.80;99.90
47600;DHT22;33323;52.124;6.018;2023-04-30T09:18:48;15.50;99.90
47600;DHT22;33323;52.124;6.018;2023-04-30T09:21:15;15.50;99.90
47600;DHT22;33323;52.124;6.018;2023-04-30T09:23:59;15.60;99.90
47600;DHT22;33323;52.124;6.018;2023-04-30T09:26:31;15.30;99.90
47600;DHT22;33323;52.124;6.018;2023-04-30T09:29:05;14.90;99.90
47600;DHT22;33323;52.124;6.018;2023-04-30T09:31:37;15.20;99.90
47600;DHT22;33323;52.124;6.018;2023-04-30T09:34:05;15.50;99.90
47600;DHT22;33323;52.124;6.018;2023-04-30T09:36:33;15.80;99.90
47600;DHT22;33323;52.124;6.018;2023-04-30T09:39:10;15.60;99.90
47600;DHT22;33323;52.124;6.018;2023-04-30T09:41:42;15.60;99.90
47600;DHT22;33323;52.124;6.018;2023-04-30T09:44:29;15.60;99.90
47600;DHT22;33323;52.124;6.018;2023-04-30T09:46:57;15.80;99.90
47600;DHT22;33323;52.124;6.018;2023-04-30T09:49:25;15.80;99.90
47600;DHT22;33323;52.124;6.018;2023-04-30T09:52:00;15.70;99.90
47600;DHT22;33323;52.124;6.018;2023-04-30T09:54:31;15.90;99.90
47600;DHT22;33323;52.124;6.018;2023-04-30T09:56:59;16.50;99.90
47600;DHT22;33323;52.124;6.018;2023-04-30T09:59:32;16.50;99.90
47600;DHT22;33323;52.124;6.018;2023-04-30T10:02:07;16.10;99.90
47600;DHT22;33323;52.124;6.018;2023-04-30T10:04:36;16.20;99.90
47600;DHT22;33323;52.124;6.018;2023-04-30T10:07:12;16.20;99.90
47600;DHT22;33323;52.124;6.018;2023-04-30T10:09:50;15.90;99.90
47600;DHT22;33323;52.124;6.018;2023-04-30T10:12:26;16.00;99.90
47600;DHT22;33323;52.124;6.018;2023-04-30T10:15:33;16.10;99.90
47600;DHT22;33323;52.124;6.018;2023-04-30T10:18:10;16.10;99.90
47600;DHT22;33323;52.124;6.018;2023-04-30T10:20:40;16.20;99.90
47600;DHT22;33323;52.124;6.018;2023-04-30T10:23:08;16.30;99.90
47600;DHT22;33323;52.124;6.018;2023-04-30T10:25:37;16.30;99.90
47600;DHT22;33323;52.124;6.018;2023-04-30T10:28:07;16.30;99.90
47600;DHT22;33323;52.124;6.018;2023-04-30T10:30:35;16.20;99.90
47600;DHT22;33323;52.124;6.018;2023-04-30T10:35:56;16.40;99.90
47600;DHT22;33323;52.124;6.018;2023-04-30T10:38:29;16.80;99.90
47600;DHT22;33323;52.124;6.018;2023-04-30T10:40:59;16.90;99.90
47600;DHT22;33323;52.124;6.018;2023-04-30T10:43:30;16.70;99.90
47600;DHT22;33323;52.124;6.018;2023-04-30T10:45:57;16.60;99.90
47600;DHT22;33323;52.124;6.018;2023-04-30T10:48:25;16.50;99.90
47600;DHT22;33323;52.124;6.018;2023-04-30T10:50:59;16.80;99.90
47600;DHT22;33323;52.124;6.018;2023-04-30T10:53:30;16.90;99.90
47600;DHT22;33323;52.124;6.018;2023-04-30T10:55:58;16.90;99.90
47600;DHT22;33323;52.124;6.018;2023-04-30T10:58:34;17.00;99.90
47600;DHT22;33323;52.124;6.018;2023-04-30T11:01:11;16.80;99.90
47600;DHT22;33323;52.124;6.018;2023-04-30T11:03:40;17.00;99.90
47600;DHT22;33323;52.124;6.018;2023-04-30T11:08:42;16.90;99.90
47600;DHT22;33323;52.124;6.018;2023-04-30T11:11:16;16.80;99.90
47600;DHT22;33323;52.124;6.018;2023-04-30T11:13:45;16.80;99.90
47600;DHT22;33323;52.124;6.018;2023-04-30T11:16:16;17.10;99.90
47600;DHT22;33323;52.124;6.018;2023-04-30T11:18:46;17.10;99.90
47600;DHT22;33323;52.124;6.018;2023-04-30T11:21:13;17.00;99.90
47600;DHT22;33323;52.124;6.018;2023-04-30T11:23:42;17.30;99.90
47600;DHT22;33323;52.124;6.018;2023-04-30T11:26:10;17.50;99.90
47600;DHT22;33323;52.124;6.018;2023-04-30T11:28:37;17.40;99.90
47600;DHT22;33323;52.124;6.018;2023-04-30T11:31:04;17.50;99.90
47600;DHT22;33323;52.124;6.018;2023-04-30T11:33:33;17.40;99.90
47600;DHT22;33323;52.124;6.018;2023-04-30T11:36:01;17.40;99.90
47600;DHT22;33323;52.124;6.018;2023-04-30T11:38:33;17.20;99.90
47600;DHT22;33323;52.124;6.018;2023-04-30T11:41:01;17.10;99.90
47600;DHT22;33323;52.124;6.018;2023-04-30T11:43:31;17.10;99.90
47600;DHT22;33323;52.124;6.018;2023-04-30T11:46:09;17.20;99.90
47600;DHT22;33323;52.124;6.018;2023-04-30T11:48:43;17.20;99.90
47600;DHT22;33323;52.124;6.018;2023-04-30T11:51:21;17.10;99.90
47600;DHT22;33323;52.124;6.018;2023-04-30T11:53:52;17.50;99.90
47600;DHT22;33323;52.124;6.018;2023-04-30T11:56:23;17.70;99.90
47600;DHT22;33323;52.124;6.018;2023-04-30T11:58:52;17.50;99.90
47600;DHT22;33323;52.124;6.018;2023-04-30T12:01:23;17.70;99.90
47600;DHT22;33323;52.124;6.018;2023-04-30T12:03:54;17.70;99.90
47600;DHT22;33323;52.124;6.018;2023-04-30T12:06:26;17.70;99.90
47600;DHT22;33323;52.124;6.018;2023-04-30T12:08:55;17.70;99.90
47600;DHT22;33323;52.124;6.018;2023-04-30T12:11:25;17.60;99.90
47600;DHT22;33323;52.124;6.018;2023-04-30T12:14:11;17.60;99.90
47600;DHT22;33323;52.124;6.018;2023-04-30T12:16:47;17.60;99.90
47600;DHT22;33323;52.124;6.018;2023-04-30T12:19:21;17.60;99.90
47600;DHT22;33323;52.124;6.018;2023-04-30T12:21:51;17.70;99.90
47600;DHT22;33323;52.124;6.018;2023-04-30T12:24:20;17.50;99.90
47600;DHT22;33323;52.124;6.018;2023-04-30T12:26:52;17.50;99.90
47600;DHT22;33323;52.124;6.018;2023-04-30T12:29:21;17.50;99.90
47600;DHT22;33323;52.124;6.018;2023-04-30T12:31:48;17.60;99.90
47600;DHT22;33323;52.124;6.018;2023-04-30T12:34:18;17.60;99.90
47600;DHT22;33323;52.124;6.018;2023-04-30T12:36:45;17.70;99.90
47600;DHT22;33323;52.124;6.018;2023-04-30T12:39:14;17.70;99.90
47600;DHT22;33323;52.124;6.018;2023-04-30T12:41:47;17.70;99.90
47600;DHT22;33323;52.124;6.018;2023-04-30T12:44:26;17.70;99.90
47600;DHT22;33323;52.124;6.018;2023-04-30T12:46:57;17.70;99.90
47600;DHT22;33323;52.124;6.018;2023-04-30T12:49:33;17.70;99.90
47600;DHT22;33323;52.124;6.018;2023-04-30T12:52:10;17.90;99.90
47600;DHT22;33323;52.124;6.018;2023-04-30T12:54:39;18.00;99.90
47600;DHT22;33323;52.124;6.018;2023-04-30T12:57:07;17.90;99.90
47600;DHT22;33323;52.124;6.018;2023-04-30T12:59:55;17.90;99.90
47600;DHT22;33323;52.124;6.018;2023-04-30T13:02:28;17.80;99.90
47600;DHT22;33323;52.124;6.018;2023-04-30T13:04:58;17.80;99.90
47600;DHT22;33323;52.124;6.018;2023-04-30T13:07:25;17.70;99.90
47600;DHT22;33323;52.124;6.018;2023-04-30T13:09:52;17.90;99.90
47600;DHT22;33323;52.124;6.018;2023-04-30T13:12:20;17.90;99.90
47600;DHT22;33323;52.124;6.018;2023-04-30T13:14:47;18.10;99.90
47600;DHT22;33323;52.124;6.018;2023-04-30T13:17:14;17.90;99.90
47600;DHT22;33323;52.124;6.018;2023-04-30T13:19:41;18.20;99.90
47600;DHT22;33323;52.124;6.018;2023-04-30T13:22:09;18.50;99.90
47600;DHT22;33323;52.124;6.018;2023-04-30T13:24:36;18.20;99.90
47600;DHT22;33323;52.124;6.018;2023-04-30T13:27:03;18.20;99.90
47600;DHT22;33323;52.124;6.018;2023-04-30T13:29:30;18.00;99.90
47600;DHT22;33323;52.124;6.018;2023-04-30T13:31:58;18.10;99.90
47600;DHT22;33323;52.124;6.018;2023-04-30T13:34:25;18.20;99.90
47600;DHT22;33323;52.124;6.018;2023-04-30T13:36:52;18.30;99.90
47600;DHT22;33323;52.124;6.018;2023-04-30T13:39:19;18.60;99.90
47600;DHT22;33323;52.124;6.018;2023-04-30T13:41:47;18.30;99.90
47600;DHT22;33323;52.124;6.018;2023-04-30T13:44:14;18.50;99.90
47600;DHT22;33323;52.124;6.018;2023-04-30T13:46:42;18.60;99.90
47600;DHT22;33323;52.124;6.018;2023-04-30T13:49:09;18.80;99.90
47600;DHT22;33323;52.124;6.018;2023-04-30T13:51:36;18.90;99.90
47600;DHT22;33323;52.124;6.018;2023-04-30T13:54:04;18.70;99.90
47600;DHT22;33323;52.124;6.018;2023-04-30T13:56:31;18.30;99.90
47600;DHT22;33323;52.124;6.018;2023-04-30T13:58:58;18.00;99.90
47600;DHT22;33323;52.124;6.018;2023-04-30T14:01:25;17.80;99.90
47600;DHT22;33323;52.124;6.018;2023-04-30T14:03:52;17.60;99.90
47600;DHT22;33323;52.124;6.018;2023-04-30T14:06:20;17.40;99.90
47600;DHT22;33323;52.124;6.018;2023-04-30T14:08:47;17.30;99.90
47600;DHT22;33323;52.124;6.018;2023-04-30T14:11:14;17.10;99.90
47600;DHT22;33323;52.124;6.018;2023-04-30T14:13:42;17.10;99.90
47600;DHT22;33323;52.124;6.018;2023-04-30T14:16:09;17.50;99.90
47600;DHT22;33323;52.124;6.018;2023-04-30T14:18:36;17.90;99.90
47600;DHT22;33323;52.124;6.018;2023-04-30T14:21:03;18.20;99.90
47600;DHT22;33323;52.124;6.018;2023-04-30T14:23:30;18.30;99.90
47600;DHT22;33323;52.124;6.018;2023-04-30T14:25:57;18.10;99.90
47600;DHT22;33323;52.124;6.018;2023-04-30T14:28:24;18.10;99.90
47600;DHT22;33323;52.124;6.018;2023-04-30T14:30:51;17.70;99.90
47600;DHT22;33323;52.124;6.018;2023-04-30T14:33:18;17.70;99.90
47600;DHT22;33323;52.124;6.018;2023-04-30T14:35:46;17.70;99.90
47600;DHT22;33323;52.124;6.018;2023-04-30T14:38:13;17.90;99.90
47600;DHT22;33323;52.124;6.018;2023-04-30T14:40:42;18.20;99.90
47600;DHT22;33323;52.124;6.018;2023-04-30T14:43:10;18.50;99.90
47600;DHT22;33323;52.124;6.018;2023-04-30T14:45:37;18.20;99.90
47600;DHT22;33323;52.124;6.018;2023-04-30T14:48:05;18.20;99.90
47600;DHT22;33323;52.124;6.018;2023-04-30T14:50:33;18.20;99.90
47600;DHT22;33323;52.124;6.018;2023-04-30T14:53:00;18.20;99.90
47600;DHT22;33323;52.124;6.018;2023-04-30T14:55:30;18.30;99.90
47600;DHT22;33323;52.124;6.018;2023-04-30T14:57:58;18.20;99.90
47600;DHT22;33323;52.124;6.018;2023-04-30T15:00:26;18.00;99.90
47600;DHT22;33323;52.124;6.018;2023-04-30T15:02:54;17.90;99.90
47600;DHT22;33323;52.124;6.018;2023-04-30T15:05:22;17.90;99.90
47600;DHT22;33323;52.124;6.018;2023-04-30T15:07:49;18.00;99.90
47600;DHT22;33323;52.124;6.018;2023-04-30T15:10:16;17.90;99.90
47600;DHT22;33323;52.124;6.018;2023-04-30T15:12:43;18.10;99.90
47600;DHT22;33323;52.124;6.018;2023-04-30T15:15:10;18.20;99.90
47600;DHT22;33323;52.124;6.018;2023-04-30T15:17:38;18.20;99.90
47600;DHT22;33323;52.124;6.018;2023-04-30T15:20:05;18.20;99.90
47600;DHT22;33323;52.124;6.018;2023-04-30T15:22:34;18.00;99.90
47600;DHT22;33323;52.124;6.018;2023-04-30T15:25:01;18.20;99.90
47600;DHT22;33323;52.124;6.018;2023-04-30T15:27:29;18.20;99.90
47600;DHT22;33323;52.124;6.018;2023-04-30T15:29:59;18.10;99.90
47600;DHT22;33323;52.124;6.018;2023-04-30T15:32:29;18.20;99.90
47600;DHT22;33323;52.124;6.018;2023-04-30T15:34:56;18.00;99.90
47600;DHT22;33323;52.124;6.018;2023-04-30T15:37:24;17.70;99.90
47600;DHT22;33323;52.124;6.018;2023-04-30T15:39:51;17.50;99.90
47600;DHT22;33323;52.124;6.018;2023-04-30T15:42:18;17.40;99.90
47600;DHT22;33323;52.124;6.018;2023-04-30T15:44:45;17.50;99.90
47600;DHT22;33323;52.124;6.018;2023-04-30T15:47:12;17.60;99.90
47600;DHT22;33323;52.124;6.018;2023-04-30T15:49:39;17.70;99.90
47600;DHT22;33323;52.124;6.018;2023-04-30T15:52:06;17.70;99.90
47600;DHT22;33323;52.124;6.018;2023-04-30T15:54:34;17.50;99.90
47600;DHT22;33323;52.124;6.018;2023-04-30T15:57:01;17.40;99.90
47600;DHT22;33323;52.124;6.018;2023-04-30T15:59:29;17.30;99.90
47600;DHT22;33323;52.124;6.018;2023-04-30T16:01:56;17.20;99.90
47600;DHT22;33323;52.124;6.018;2023-04-30T16:04:23;17.00;99.90
47600;DHT22;33323;52.124;6.018;2023-04-30T16:06:51;17.00;99.90
47600;DHT22;33323;52.124;6.018;2023-04-30T16:09:18;17.00;99.90
47600;DHT22;33323;52.124;6.018;2023-04-30T16:11:48;17.20;99.90